createdAt,value
2019-03-10T00:00:48.788Z,1010.63
2019-03-10T00:01:48.740Z,1010.64
2019-03-10T00:02:48.690Z,1010.61
2019-03-10T00:03:48.649Z,1010.52
2019-03-10T00:04:48.595Z,1010.59
2019-03-10T00:05:48.555Z,1010.52
2019-03-10T00:06:48.505Z,1010.48
2019-03-10T00:07:48.452Z,1010.44
2019-03-10T00:08:48.583Z,1010.40
2019-03-10T00:09:48.398Z,1010.35
2019-03-10T00:10:48.307Z,1010.33
2019-03-10T00:11:48.262Z,1010.25
2019-03-10T00:12:48.215Z,1010.19
2019-03-10T00:13:48.167Z,1010.18
2019-03-10T00:14:48.120Z,1010.15
2019-03-10T00:15:48.070Z,1010.11
2019-03-10T00:16:48.030Z,1010.12
2019-03-10T00:17:47.973Z,1010.06
2019-03-10T00:18:47.925Z,1010.02
2019-03-10T00:19:47.879Z,1009.99
2019-03-10T00:20:47.833Z,1010.02
2019-03-10T00:21:47.893Z,1010.02
2019-03-10T00:22:47.733Z,1010.04
2019-03-10T00:23:47.685Z,1009.99
2019-03-10T00:24:47.641Z,1009.99
2019-03-10T00:25:47.600Z,1009.96
2019-03-10T00:26:47.543Z,1009.91
2019-03-10T00:27:47.495Z,1009.91
2019-03-10T00:28:47.446Z,1009.92
2019-03-10T00:29:47.399Z,1009.90
2019-03-10T00:30:47.351Z,1009.93
2019-03-10T00:31:47.317Z,1009.94
2019-03-10T00:32:47.256Z,1009.96
2019-03-10T00:33:47.209Z,1009.96
2019-03-10T00:34:47.169Z,1009.95
2019-03-10T00:35:47.115Z,1009.90
2019-03-10T00:36:47.072Z,1009.96
2019-03-10T00:37:47.017Z,1009.96
2019-03-10T00:38:47.066Z,1009.97
2019-03-10T00:39:46.921Z,1010.03
2019-03-10T00:40:46.873Z,1010.06
2019-03-10T00:41:46.830Z,1010.03
2019-03-10T00:42:46.779Z,1010.02
2019-03-10T00:43:46.729Z,1010.05
2019-03-10T00:44:46.682Z,1009.98
2019-03-10T00:45:46.635Z,1010.05
2019-03-10T00:46:46.587Z,1009.99
2019-03-10T00:47:46.544Z,1009.99
2019-03-10T00:48:46.492Z,1010.00
2019-03-10T00:49:46.443Z,1009.97
2019-03-10T00:50:46.395Z,1009.94
2019-03-10T00:51:46.350Z,1009.88
2019-03-10T00:52:46.306Z,1009.92
2019-03-10T00:53:46.251Z,1009.94
2019-03-10T00:54:46.202Z,1009.90
2019-03-10T00:55:46.157Z,1009.89
2019-03-10T00:56:46.111Z,1009.91
2019-03-10T00:57:46.059Z,1009.87
2019-03-10T00:58:46.024Z,1009.84
2019-03-10T00:59:46.046Z,1009.81
2019-03-10T01:00:45.922Z,1009.80
2019-03-10T01:01:45.874Z,1009.82
2019-03-10T01:02:45.828Z,1009.78
2019-03-10T01:03:45.776Z,1009.73
2019-03-10T01:04:45.729Z,1009.65
2019-03-10T01:05:45.678Z,1009.70
2019-03-10T01:06:45.634Z,1009.71
2019-03-10T01:07:45.587Z,1009.71
2019-03-10T01:08:45.538Z,1009.75
2019-03-10T01:09:45.491Z,1009.73
2019-03-10T01:10:45.443Z,1009.68
2019-03-10T01:11:45.392Z,1009.64
2019-03-10T01:12:45.347Z,1009.60
2019-03-10T01:13:45.296Z,1009.58
2019-03-10T01:14:45.250Z,1009.56
2019-03-10T01:15:45.203Z,1009.54
2019-03-10T01:16:45.180Z,1009.52
2019-03-10T01:17:45.124Z,1009.51
2019-03-10T01:18:45.107Z,1009.45
2019-03-10T01:19:45.012Z,1009.41
2019-03-10T01:20:44.963Z,1009.37
2019-03-10T01:21:44.914Z,1009.34
2019-03-10T01:22:44.873Z,1009.29
2019-03-10T01:23:44.822Z,1009.30
2019-03-10T01:24:44.772Z,1009.26
2019-03-10T01:25:44.726Z,1009.25
2019-03-10T01:26:44.678Z,1009.25
2019-03-10T01:27:44.633Z,1009.26
2019-03-10T01:28:44.613Z,1009.21
2019-03-10T01:29:44.543Z,1009.21
2019-03-10T01:30:44.492Z,1009.21
2019-03-10T01:31:44.437Z,1009.24
2019-03-10T01:32:44.389Z,1009.18
2019-03-10T01:33:44.341Z,1009.09
2019-03-10T01:34:44.298Z,1009.01
2019-03-10T01:35:44.249Z,1009.00
2019-03-10T01:36:44.200Z,1009.02
2019-03-10T01:37:44.151Z,1008.98
2019-03-10T01:38:44.103Z,1008.95
2019-03-10T01:39:44.058Z,1008.92
2019-03-10T01:40:44.008Z,1008.84
2019-03-10T01:41:43.959Z,1008.79
2019-03-10T01:42:43.915Z,1008.75
2019-03-10T01:43:43.864Z,1008.70
2019-03-10T01:44:43.873Z,1008.71
2019-03-10T01:45:43.784Z,1008.72
2019-03-10T01:46:43.722Z,1008.72
2019-03-10T01:47:43.697Z,1008.76
2019-03-10T01:48:43.626Z,1008.73
2019-03-10T01:49:43.577Z,1008.70
2019-03-10T01:50:43.533Z,1008.68
2019-03-10T01:51:43.482Z,1008.60
2019-03-10T01:52:43.434Z,1008.56
2019-03-10T01:53:43.394Z,1008.53
2019-03-10T01:54:43.341Z,1008.56
2019-03-10T01:55:43.290Z,1008.58
2019-03-10T01:56:43.247Z,1008.52
2019-03-10T01:57:43.195Z,1008.48
2019-03-10T01:58:43.147Z,1008.47
2019-03-10T01:59:43.111Z,1008.44
2019-03-10T02:00:43.052Z,1008.44
2019-03-10T02:01:43.010Z,1008.43
2019-03-10T02:02:42.960Z,1008.42
2019-03-10T02:03:42.910Z,1008.34
2019-03-10T02:04:42.936Z,1008.33
2019-03-10T02:05:42.813Z,1008.36
2019-03-10T02:06:42.927Z,1008.35
2019-03-10T02:07:42.747Z,1008.26
2019-03-10T02:08:42.673Z,1008.24
2019-03-10T02:09:42.658Z,1008.30
2019-03-10T02:10:42.615Z,1008.23
2019-03-10T02:11:42.527Z,1008.15
2019-03-10T02:12:42.490Z,1008.11
2019-03-10T02:13:42.433Z,1008.07
2019-03-10T02:14:42.387Z,1008.10
2019-03-10T02:15:42.341Z,1008.07
2019-03-10T02:16:42.289Z,1008.04
2019-03-10T02:17:42.243Z,1007.98
2019-03-10T02:18:42.198Z,1008.01
2019-03-10T02:19:42.149Z,1007.94
2019-03-10T02:20:42.099Z,1007.86
2019-03-10T02:21:42.058Z,1007.88
2019-03-10T02:22:42.001Z,1007.81
2019-03-10T02:23:42.087Z,1007.82
2019-03-10T02:24:41.906Z,1007.81
2019-03-10T02:25:41.861Z,1007.74
2019-03-10T02:26:41.816Z,1007.68
2019-03-10T02:27:41.771Z,1007.70
2019-03-10T02:28:41.715Z,1007.62
2019-03-10T02:29:41.670Z,1007.63
2019-03-10T02:30:41.653Z,1007.56
2019-03-10T02:31:41.578Z,1007.54
2019-03-10T02:32:41.525Z,1007.54
2019-03-10T02:33:41.479Z,1007.45
2019-03-10T02:34:41.432Z,1007.41
2019-03-10T02:35:41.381Z,1007.35
2019-03-10T02:36:41.334Z,1007.40
2019-03-10T02:37:41.290Z,1007.35
2019-03-10T02:38:41.254Z,1007.35
2019-03-10T02:39:41.193Z,1007.33
2019-03-10T02:40:43.375Z,1007.26
2019-03-10T02:41:41.097Z,1007.22
2019-03-10T02:42:41.065Z,1007.14
2019-03-10T02:43:41.008Z,1007.22
2019-03-10T02:44:40.956Z,1007.17
2019-03-10T02:45:40.904Z,1007.13
2019-03-10T02:46:40.864Z,1007.12
2019-03-10T02:47:40.809Z,1007.10
2019-03-10T02:48:40.762Z,1007.03
2019-03-10T02:49:40.714Z,1007.01
2019-03-10T02:50:40.666Z,1007.00
2019-03-10T02:51:40.619Z,1007.01
2019-03-10T02:52:40.580Z,1006.96
2019-03-10T02:53:40.527Z,1006.92
2019-03-10T02:54:40.478Z,1006.90
2019-03-10T02:55:40.431Z,1006.92
2019-03-10T02:56:40.389Z,1006.85
2019-03-10T02:57:40.332Z,1006.86
2019-03-10T02:58:40.282Z,1006.83
2019-03-10T02:59:40.247Z,1006.85
2019-03-10T03:00:40.189Z,1006.84
2019-03-10T03:01:40.154Z,1006.79
2019-03-10T03:02:40.107Z,1006.75
2019-03-10T03:03:40.043Z,1006.77
2019-03-10T03:04:39.996Z,1006.76
2019-03-10T03:05:39.949Z,1006.74
2019-03-10T03:06:39.905Z,1006.68
2019-03-10T03:07:39.866Z,1006.70
2019-03-10T03:08:39.811Z,1006.67
2019-03-10T03:09:39.759Z,1006.59
2019-03-10T03:10:39.708Z,1006.55
2019-03-10T03:11:39.664Z,1006.49
2019-03-10T03:12:39.616Z,1006.52
2019-03-10T03:13:39.565Z,1006.53
2019-03-10T03:14:39.594Z,1006.54
2019-03-10T03:15:39.470Z,1006.48
2019-03-10T03:16:39.441Z,1006.43
2019-03-10T03:17:39.382Z,1006.38
2019-03-10T03:18:39.329Z,1006.29
2019-03-10T03:19:39.281Z,1006.30
2019-03-10T03:20:39.231Z,1006.23
2019-03-10T03:21:43.484Z,1006.19
2019-03-10T03:22:39.137Z,1006.16
2019-03-10T03:23:39.093Z,1006.18
2019-03-10T03:24:39.043Z,1006.18
2019-03-10T03:25:38.995Z,1006.12
2019-03-10T03:26:38.946Z,1006.06
2019-03-10T03:27:38.898Z,1006.07
2019-03-10T03:28:38.861Z,1006.00
2019-03-10T03:29:38.801Z,1005.96
2019-03-10T03:30:38.774Z,1005.97
2019-03-10T03:31:38.711Z,1005.91
2019-03-10T03:32:38.660Z,1005.85
2019-03-10T03:33:38.609Z,1005.89
2019-03-10T03:34:38.582Z,1005.84
2019-03-10T03:35:38.588Z,1005.83
2019-03-10T03:36:38.469Z,1005.80
2019-03-10T03:37:38.422Z,1005.80
2019-03-10T03:38:38.391Z,1005.78
2019-03-10T03:39:38.327Z,1005.77
2019-03-10T03:40:38.276Z,1005.80
2019-03-10T03:41:38.231Z,1005.79
2019-03-10T03:42:38.178Z,1005.71
2019-03-10T03:43:38.139Z,1005.65
2019-03-10T03:44:38.109Z,1005.68
2019-03-10T03:45:38.035Z,1005.65
2019-03-10T03:46:37.990Z,1005.66
2019-03-10T03:47:37.944Z,1005.58
2019-03-10T03:48:37.899Z,1005.55
2019-03-10T03:49:37.844Z,1005.52
2019-03-10T03:50:37.803Z,1005.51
2019-03-10T03:51:37.754Z,1005.43
2019-03-10T03:52:37.703Z,1005.44
2019-03-10T03:53:37.657Z,1005.42
2019-03-10T03:54:37.612Z,1005.41
2019-03-10T03:55:37.561Z,1005.42
2019-03-10T03:56:37.508Z,1005.37
2019-03-10T03:57:37.464Z,1005.41
2019-03-10T03:58:37.420Z,1005.33
2019-03-10T03:59:37.365Z,1005.25
2019-03-10T04:00:37.321Z,1005.23
2019-03-10T04:01:37.269Z,1005.17
2019-03-10T04:02:37.233Z,1005.09
2019-03-10T04:03:37.175Z,1005.13
2019-03-10T04:04:37.127Z,1005.08
2019-03-10T04:05:37.077Z,1005.12
2019-03-10T04:06:37.032Z,1005.14
2019-03-10T04:07:36.985Z,1005.10
2019-03-10T04:08:36.937Z,1005.05
2019-03-10T04:09:36.917Z,1005.02
2019-03-10T04:10:36.840Z,1004.96
2019-03-10T04:11:36.789Z,1004.94
2019-03-10T04:12:36.743Z,1004.90
2019-03-10T04:13:36.696Z,1004.88
2019-03-10T04:14:36.646Z,1004.81
2019-03-10T04:15:36.598Z,1004.78
2019-03-10T04:16:36.571Z,1004.70
2019-03-10T04:17:36.501Z,1004.65
2019-03-10T04:18:36.453Z,1004.62
2019-03-10T04:19:36.419Z,1004.67
2019-03-10T04:20:36.363Z,1004.63
2019-03-10T04:21:36.311Z,1004.62
2019-03-10T04:22:36.262Z,1004.60
2019-03-10T04:23:36.238Z,1004.56
2019-03-10T04:24:36.170Z,1004.54
2019-03-10T04:25:36.117Z,1004.48
2019-03-10T04:26:36.069Z,1004.45
2019-03-10T04:27:36.021Z,1004.41
2019-03-10T04:28:35.975Z,1004.38
2019-03-10T04:29:35.926Z,1004.33
2019-03-10T04:30:35.880Z,1004.31
2019-03-10T04:31:35.833Z,1004.31
2019-03-10T04:32:35.789Z,1004.32
2019-03-10T04:33:35.732Z,1004.30
2019-03-10T04:34:35.704Z,1004.25
2019-03-10T04:35:35.636Z,1004.23
2019-03-10T04:36:35.591Z,1004.20
2019-03-10T04:37:35.540Z,1004.17
2019-03-10T04:38:35.493Z,1004.14
2019-03-10T04:39:35.443Z,1004.18
2019-03-10T04:40:35.396Z,1004.15
2019-03-10T04:41:35.355Z,1004.19
2019-03-10T04:42:35.298Z,1004.20
2019-03-10T04:43:35.257Z,1004.24
2019-03-10T04:44:36.283Z,1004.14
2019-03-10T04:45:35.156Z,1004.11
2019-03-10T04:46:35.109Z,1004.07
2019-03-10T04:47:35.060Z,1003.97
2019-03-10T04:48:35.016Z,1003.98
2019-03-10T04:49:34.964Z,1003.95
2019-03-10T04:50:34.918Z,1003.95
2019-03-10T04:51:34.868Z,1003.92
2019-03-10T04:52:34.820Z,1003.87
2019-03-10T04:53:34.773Z,1003.87
2019-03-10T04:54:34.728Z,1003.82
2019-03-10T04:55:34.675Z,1003.82
2019-03-10T04:56:34.630Z,1003.75
2019-03-10T04:57:34.579Z,1003.70
2019-03-10T04:58:34.530Z,1003.68
2019-03-10T04:59:34.483Z,1003.63
2019-03-10T05:00:34.434Z,1003.59
2019-03-10T05:01:34.393Z,1003.58
2019-03-10T05:02:34.341Z,1003.52
2019-03-10T05:03:34.290Z,1003.49
2019-03-10T05:04:34.244Z,1003.51
2019-03-10T05:05:34.195Z,1003.48
2019-03-10T05:06:34.143Z,1003.43
2019-03-10T05:07:34.099Z,1003.39
2019-03-10T05:08:34.058Z,1003.37
2019-03-10T05:09:33.999Z,1003.38
2019-03-10T05:10:33.970Z,1003.38
2019-03-10T05:11:33.909Z,1003.33
2019-03-10T05:12:33.856Z,1003.29
2019-03-10T05:13:33.805Z,1003.24
2019-03-10T05:14:33.765Z,1003.22
2019-03-10T05:15:33.712Z,1003.20
2019-03-10T05:16:33.663Z,1003.17
2019-03-10T05:17:33.620Z,1003.15
2019-03-10T05:18:33.568Z,1003.06
2019-03-10T05:19:33.521Z,1003.03
2019-03-10T05:20:33.524Z,1003.05
2019-03-10T05:21:33.421Z,1003.07
2019-03-10T05:22:33.378Z,1003.12
2019-03-10T05:23:33.342Z,1003.09
2019-03-10T05:24:33.279Z,1003.02
2019-03-10T05:25:33.230Z,1002.99
2019-03-10T05:26:33.183Z,1002.99
2019-03-10T05:27:33.134Z,1002.90
2019-03-10T05:28:33.085Z,1002.86
2019-03-10T05:29:33.041Z,1002.82
2019-03-10T05:30:32.993Z,1002.76
2019-03-10T05:31:32.942Z,1002.70
2019-03-10T05:32:32.900Z,1002.68
2019-03-10T05:33:32.846Z,1002.66
2019-03-10T05:34:32.800Z,1002.58
2019-03-10T05:35:32.748Z,1002.58
2019-03-10T05:36:32.699Z,1002.57
2019-03-10T05:37:32.655Z,1002.55
2019-03-10T05:38:32.607Z,1002.55
2019-03-10T05:39:32.555Z,1002.53
2019-03-10T05:40:32.507Z,1002.47
2019-03-10T05:41:32.458Z,1002.42
2019-03-10T05:42:32.412Z,1002.37
2019-03-10T05:43:32.364Z,1002.30
2019-03-10T05:44:32.313Z,1002.30
2019-03-10T05:45:32.265Z,1002.26
2019-03-10T05:46:32.219Z,1002.24
2019-03-10T05:47:32.174Z,1002.19
2019-03-10T05:48:32.124Z,1002.12
2019-03-10T05:49:32.072Z,1002.05
2019-03-10T05:50:32.028Z,1002.04
2019-03-10T05:51:31.978Z,1001.98
2019-03-10T05:52:31.934Z,1002.02
2019-03-10T05:53:31.883Z,1002.03
2019-03-10T05:54:31.834Z,1002.01
2019-03-10T05:55:31.784Z,1002.02
2019-03-10T05:56:32.041Z,1001.98
2019-03-10T05:57:31.688Z,1001.91
2019-03-10T05:58:31.640Z,1001.83
2019-03-10T05:59:31.591Z,1001.77
2019-03-10T06:00:41.815Z,1001.78
2019-03-10T06:01:31.496Z,1001.69
2019-03-10T06:02:31.446Z,1001.63
2019-03-10T06:03:31.398Z,1001.63
2019-03-10T06:04:31.352Z,1001.61
2019-03-10T06:05:31.302Z,1001.58
2019-03-10T06:06:31.254Z,1001.51
2019-03-10T06:07:31.204Z,1001.47
2019-03-10T06:08:31.159Z,1001.44
2019-03-10T06:09:31.107Z,1001.44
2019-03-10T06:10:31.062Z,1001.43
2019-03-10T06:11:31.014Z,1001.35
2019-03-10T06:12:30.965Z,1001.33
2019-03-10T06:13:30.915Z,1001.30
2019-03-10T06:14:30.868Z,1001.30
2019-03-10T06:15:30.818Z,1001.25
2019-03-10T06:16:30.771Z,1001.19
2019-03-10T06:17:30.722Z,1001.19
2019-03-10T06:18:30.674Z,1001.17
2019-03-10T06:19:30.623Z,1001.18
2019-03-10T06:20:30.576Z,1001.20
2019-03-10T06:21:30.531Z,1001.18
2019-03-10T06:22:30.547Z,1001.18
2019-03-10T06:23:30.430Z,1001.23
2019-03-10T06:24:30.382Z,1001.19
2019-03-10T06:25:30.342Z,1001.19
2019-03-10T06:26:30.284Z,1001.20
2019-03-10T06:27:30.239Z,1001.17
2019-03-10T06:28:30.191Z,1001.14
2019-03-10T06:29:30.141Z,1001.16
2019-03-10T06:30:30.093Z,1001.16
2019-03-10T06:31:30.048Z,1001.15
2019-03-10T06:32:30.007Z,1001.10
2019-03-10T06:33:29.952Z,1001.11
2019-03-10T06:34:29.897Z,1001.06
2019-03-10T06:35:29.850Z,1001.03
2019-03-10T06:36:29.801Z,1001.00
2019-03-10T06:37:29.751Z,1000.95
2019-03-10T06:38:29.706Z,1000.93
2019-03-10T06:39:29.655Z,1000.89
2019-03-10T06:40:32.493Z,1000.90
2019-03-10T06:41:29.564Z,1000.84
2019-03-10T06:42:29.513Z,1000.88
2019-03-10T06:43:29.464Z,1000.83
2019-03-10T06:44:29.417Z,1000.79
2019-03-10T06:45:29.367Z,1000.76
2019-03-10T06:46:29.326Z,1000.78
2019-03-10T06:47:29.268Z,1000.74
2019-03-10T06:48:29.220Z,1000.69
2019-03-10T06:49:29.172Z,1000.62
2019-03-10T06:50:29.125Z,1000.58
2019-03-10T06:51:29.077Z,1000.54
2019-03-10T06:52:29.031Z,1000.49
2019-03-10T06:53:28.987Z,1000.48
2019-03-10T06:54:28.932Z,1000.44
2019-03-10T06:55:28.885Z,1000.40
2019-03-10T06:56:28.833Z,1000.36
2019-03-10T06:57:32.388Z,1000.32
2019-03-10T06:58:28.738Z,1000.27
2019-03-10T06:59:28.693Z,1000.21
2019-03-10T07:00:28.641Z,1000.11
2019-03-10T07:01:28.592Z,1000.05
2019-03-10T07:02:28.544Z,1000.06
2019-03-10T07:03:28.500Z,1000.06
2019-03-10T07:04:28.446Z,1000.01
2019-03-10T07:05:28.402Z,1000.03
2019-03-10T07:06:28.350Z,1000.04
2019-03-10T07:07:28.303Z,999.99
2019-03-10T07:08:28.253Z,999.93
2019-03-10T07:09:28.211Z,999.91
2019-03-10T07:10:28.162Z,999.93
2019-03-10T07:11:28.111Z,999.92
2019-03-10T07:12:28.062Z,999.85
2019-03-10T07:13:28.011Z,999.82
2019-03-10T07:14:27.969Z,999.74
2019-03-10T07:15:27.913Z,999.75
2019-03-10T07:16:27.867Z,999.71
2019-03-10T07:17:27.817Z,999.70
2019-03-10T07:18:27.773Z,999.64
2019-03-10T07:19:27.721Z,999.65
2019-03-10T07:20:27.673Z,999.59
2019-03-10T07:21:27.626Z,999.57
2019-03-10T07:22:27.578Z,999.56
2019-03-10T07:23:27.526Z,999.54
2019-03-10T07:24:27.477Z,999.53
2019-03-10T07:25:27.428Z,999.46
2019-03-10T07:26:27.383Z,999.46
2019-03-10T07:27:27.333Z,999.42
2019-03-10T07:28:27.286Z,999.39
2019-03-10T07:29:27.251Z,999.36
2019-03-10T07:30:27.191Z,999.38
2019-03-10T07:31:27.139Z,999.39
2019-03-10T07:32:27.101Z,999.33
2019-03-10T07:33:27.046Z,999.28
2019-03-10T07:34:26.997Z,999.29
2019-03-10T07:35:26.951Z,999.28
2019-03-10T07:36:26.901Z,999.19
2019-03-10T07:37:26.870Z,999.19
2019-03-10T07:38:26.800Z,999.18
2019-03-10T07:39:26.753Z,999.18
2019-03-10T07:40:26.707Z,999.13
2019-03-10T07:41:26.660Z,999.06
2019-03-10T07:42:26.612Z,998.98
2019-03-10T07:43:26.560Z,998.87
2019-03-10T07:44:26.520Z,998.84
2019-03-10T07:45:26.465Z,998.81
2019-03-10T07:46:26.416Z,998.77
2019-03-10T07:47:26.367Z,998.78
2019-03-10T07:48:26.325Z,998.78
2019-03-10T07:49:26.272Z,998.78
2019-03-10T07:50:26.223Z,998.80
2019-03-10T07:51:26.218Z,998.76
2019-03-10T07:52:26.125Z,998.70
2019-03-10T07:53:26.083Z,998.64
2019-03-10T07:54:26.031Z,998.68
2019-03-10T07:55:25.985Z,998.65
2019-03-10T07:56:25.935Z,998.59
2019-03-10T07:57:25.883Z,998.54
2019-03-10T07:58:25.834Z,998.50
2019-03-10T07:59:25.786Z,998.46
2019-03-10T08:00:25.745Z,998.48
2019-03-10T08:01:25.691Z,998.51
2019-03-10T08:02:25.642Z,998.55
2019-03-10T08:03:26.916Z,998.62
2019-03-10T08:04:25.544Z,998.61
2019-03-10T08:05:25.499Z,998.60
2019-03-10T08:06:25.454Z,998.57
2019-03-10T08:07:25.399Z,998.59
2019-03-10T08:08:25.362Z,998.57
2019-03-10T08:09:25.304Z,998.57
2019-03-10T08:10:25.256Z,998.51
2019-03-10T08:11:25.206Z,998.47
2019-03-10T08:12:25.158Z,998.41
2019-03-10T08:13:25.111Z,998.41
2019-03-10T08:14:25.062Z,998.44
2019-03-10T08:15:25.019Z,998.44
2019-03-10T08:16:24.967Z,998.42
2019-03-10T08:17:24.917Z,998.34
2019-03-10T08:18:24.870Z,998.35
2019-03-10T08:19:24.824Z,998.39
2019-03-10T08:20:24.777Z,998.33
2019-03-10T08:21:24.726Z,998.30
2019-03-10T08:22:24.684Z,998.23
2019-03-10T08:23:24.628Z,998.24
2019-03-10T08:24:24.581Z,998.21
2019-03-10T08:25:24.532Z,998.26
2019-03-10T08:26:24.487Z,998.30
2019-03-10T08:27:24.437Z,998.40
2019-03-10T08:28:24.396Z,998.41
2019-03-10T08:29:24.345Z,998.44
2019-03-10T08:30:24.293Z,998.46
2019-03-10T08:31:24.249Z,998.37
2019-03-10T08:32:24.196Z,998.34
2019-03-10T08:33:24.151Z,998.41
2019-03-10T08:34:24.104Z,998.39
2019-03-10T08:35:24.060Z,998.30
2019-03-10T08:36:24.005Z,998.24
2019-03-10T08:37:23.959Z,998.24
2019-03-10T08:38:23.916Z,998.10
2019-03-10T08:39:23.859Z,998.09
2019-03-10T08:40:23.812Z,998.02
2019-03-10T08:41:23.768Z,998.01
2019-03-10T08:42:23.716Z,998.02
2019-03-10T08:43:23.668Z,998.00
2019-03-10T08:44:23.620Z,997.94
2019-03-10T08:45:23.580Z,997.90
2019-03-10T08:46:23.526Z,997.97
2019-03-10T08:47:23.481Z,997.86
2019-03-10T08:48:23.443Z,997.90
2019-03-10T08:49:23.379Z,997.94
2019-03-10T08:50:23.332Z,997.90
2019-03-10T08:51:23.290Z,997.85
2019-03-10T08:52:23.239Z,997.85
2019-03-10T08:53:23.192Z,997.89
2019-03-10T08:54:23.145Z,997.88
2019-03-10T08:55:23.094Z,997.84
2019-03-10T08:56:23.047Z,997.75
2019-03-10T08:57:23.002Z,997.73
2019-03-10T08:58:22.950Z,997.76
2019-03-10T08:59:22.902Z,997.82
2019-03-10T09:00:22.855Z,997.79
2019-03-10T09:01:22.809Z,997.75
2019-03-10T09:02:22.759Z,997.71
2019-03-10T09:03:22.710Z,997.67
2019-03-10T09:05:22.617Z,997.61
2019-03-10T09:06:22.573Z,997.60
2019-03-10T09:07:22.523Z,997.57
2019-03-10T09:08:22.480Z,997.54
2019-03-10T09:09:22.425Z,997.50
2019-03-10T09:10:22.377Z,997.46
2019-03-10T09:11:22.414Z,997.41
2019-03-10T09:12:22.292Z,997.30
2019-03-10T09:13:22.235Z,997.39
2019-03-10T09:14:22.188Z,997.40
2019-03-10T09:15:22.138Z,997.39
2019-03-10T09:16:22.090Z,997.36
2019-03-10T09:17:22.053Z,997.31
2019-03-10T09:18:22.000Z,997.29
2019-03-10T09:19:21.952Z,997.22
2019-03-10T09:20:21.905Z,997.21
2019-03-10T09:21:21.854Z,997.29
2019-03-10T09:22:21.831Z,997.28
2019-03-10T09:23:21.762Z,997.25
2019-03-10T09:24:21.709Z,997.20
2019-03-10T09:25:21.660Z,997.16
2019-03-10T09:26:21.613Z,997.12
2019-03-10T09:27:21.572Z,997.07
2019-03-10T09:28:21.522Z,997.03
2019-03-10T09:29:21.488Z,997.03
2019-03-10T09:30:21.422Z,997.01
2019-03-10T09:31:21.374Z,996.91
2019-03-10T09:32:21.330Z,996.81
2019-03-10T09:33:21.314Z,996.78
2019-03-10T09:34:21.233Z,996.84
2019-03-10T09:35:21.184Z,996.76
2019-03-10T09:36:21.141Z,996.68
2019-03-10T09:37:21.139Z,996.68
2019-03-10T09:38:21.044Z,996.62
2019-03-10T09:39:20.999Z,996.65
2019-03-10T09:40:20.947Z,996.61
2019-03-10T09:41:20.899Z,996.60
2019-03-10T09:42:20.855Z,996.63
2019-03-10T09:43:20.804Z,996.58
2019-03-10T09:44:20.762Z,996.58
2019-03-10T09:45:20.714Z,996.55
2019-03-10T09:46:20.665Z,996.53
2019-03-10T09:47:20.617Z,996.59
2019-03-10T09:48:20.568Z,996.57
2019-03-10T09:49:20.523Z,996.57
2019-03-10T09:50:20.586Z,996.47
2019-03-10T09:51:20.428Z,996.48
2019-03-10T09:52:20.378Z,996.46
2019-03-10T09:53:20.338Z,996.45
2019-03-10T09:54:20.305Z,996.43
2019-03-10T09:55:20.241Z,996.43
2019-03-10T09:56:20.192Z,996.41
2019-03-10T09:57:20.151Z,996.38
2019-03-10T09:58:20.092Z,996.42
2019-03-10T09:59:20.044Z,996.38
2019-03-10T10:00:20.001Z,996.39
2019-03-10T10:01:19.952Z,996.32
2019-03-10T10:02:19.906Z,996.31
2019-03-10T10:03:19.857Z,996.28
2019-03-10T10:04:19.808Z,996.32
2019-03-10T10:05:19.763Z,996.34
2019-03-10T10:06:19.721Z,996.22
2019-03-10T10:07:19.669Z,996.24
2019-03-10T10:08:19.624Z,996.20
2019-03-10T10:09:19.571Z,996.16
2019-03-10T10:10:19.529Z,996.16
2019-03-10T10:11:19.480Z,996.21
2019-03-10T10:12:19.431Z,996.24
2019-03-10T10:13:19.384Z,996.18
2019-03-10T10:14:19.338Z,996.22
2019-03-10T10:15:19.291Z,996.17
2019-03-10T10:16:19.244Z,996.21
2019-03-10T10:17:19.197Z,996.20
2019-03-10T10:18:19.148Z,996.16
2019-03-10T10:19:19.106Z,996.15
2019-03-10T10:20:19.058Z,996.14
2019-03-10T10:21:19.008Z,996.15
2019-03-10T10:22:18.964Z,996.11
2019-03-10T10:23:18.916Z,996.13
2019-03-10T10:24:18.870Z,996.10
2019-03-10T10:25:18.822Z,996.12
2019-03-10T10:26:18.778Z,996.13
2019-03-10T10:27:20.198Z,996.09
2019-03-10T10:28:18.680Z,996.05
2019-03-10T10:29:18.638Z,996.01
2019-03-10T10:30:18.658Z,995.99
2019-03-10T10:31:18.540Z,995.92
2019-03-10T10:32:18.495Z,995.93
2019-03-10T10:33:18.444Z,995.91
2019-03-10T10:34:18.403Z,995.87
2019-03-10T10:35:18.402Z,995.82
2019-03-10T10:36:18.311Z,995.83
2019-03-10T10:37:18.259Z,995.82
2019-03-10T10:38:19.214Z,995.78
2019-03-10T10:39:18.168Z,995.80
2019-03-10T10:40:18.118Z,995.81
2019-03-10T10:41:18.073Z,995.78
2019-03-10T10:42:18.035Z,995.80
2019-03-10T10:43:17.977Z,995.77
2019-03-10T10:44:17.932Z,995.78
2019-03-10T10:45:17.956Z,995.76
2019-03-10T10:46:17.843Z,995.75
2019-03-10T10:47:17.791Z,995.62
2019-03-10T10:48:17.754Z,995.69
2019-03-10T10:49:17.698Z,995.70
2019-03-10T10:50:17.680Z,995.74
2019-03-10T10:51:17.622Z,995.68
2019-03-10T10:52:17.614Z,995.68
2019-03-10T10:53:17.530Z,995.64
2019-03-10T10:54:17.466Z,995.63
2019-03-10T10:55:17.424Z,995.61
2019-03-10T10:56:17.376Z,995.54
2019-03-10T10:57:17.342Z,995.58
2019-03-10T10:58:17.281Z,995.54
2019-03-10T10:59:17.234Z,995.68
2019-03-10T11:00:17.197Z,995.66
2019-03-10T11:01:17.145Z,995.56
2019-03-10T11:02:17.099Z,995.52
2019-03-10T11:03:17.052Z,995.52
2019-03-10T11:04:17.011Z,995.49
2019-03-10T11:05:16.961Z,995.54
2019-03-10T11:06:16.916Z,995.50
2019-03-10T11:07:16.872Z,995.50
2019-03-10T11:08:16.825Z,995.35
2019-03-10T11:09:16.779Z,995.41
2019-03-10T11:10:16.777Z,995.42
2019-03-10T11:11:16.791Z,995.34
2019-03-10T11:12:16.639Z,995.53
2019-03-10T11:13:16.608Z,995.37
2019-03-10T11:14:16.592Z,995.29
2019-03-10T11:15:16.500Z,995.32
2019-03-10T11:16:16.455Z,995.26
2019-03-10T11:17:16.413Z,995.30
2019-03-10T11:18:16.365Z,995.43
2019-03-10T11:19:16.322Z,995.35
2019-03-10T11:20:16.336Z,995.49
2019-03-10T11:21:16.229Z,995.40
2019-03-10T11:22:16.188Z,995.35
2019-03-10T11:23:16.137Z,995.23
2019-03-10T11:24:16.095Z,995.36
2019-03-10T11:25:16.045Z,995.24
2019-03-10T11:26:16.000Z,995.26
2019-03-10T11:27:15.957Z,995.34
2019-03-10T11:28:15.920Z,995.19
2019-03-10T11:29:15.869Z,995.19
2019-03-10T11:30:15.829Z,995.14
2019-03-10T11:31:15.776Z,995.11
2019-03-10T11:32:15.729Z,995.15
2019-03-10T11:33:15.680Z,995.00
2019-03-10T11:34:15.641Z,995.24
2019-03-10T11:35:15.591Z,995.21
2019-03-10T11:36:15.546Z,995.20
2019-03-10T11:37:15.501Z,995.35
2019-03-10T11:38:15.459Z,995.47
2019-03-10T11:39:15.416Z,995.48
2019-03-10T11:40:15.362Z,995.44
2019-03-10T11:41:15.316Z,995.44
2019-03-10T11:42:15.271Z,995.52
2019-03-10T11:43:15.233Z,995.54
2019-03-10T11:44:15.181Z,995.53
2019-03-10T11:45:15.136Z,995.44
2019-03-10T11:46:15.100Z,995.59
2019-03-10T11:47:15.052Z,995.57
2019-03-10T11:48:15.003Z,995.53
2019-03-10T11:49:14.952Z,995.50
2019-03-10T11:50:15.296Z,995.59
2019-03-10T11:51:14.853Z,995.49
2019-03-10T11:52:14.808Z,995.42
2019-03-10T11:53:19.275Z,995.43
2019-03-10T11:54:14.739Z,995.28
2019-03-10T11:55:14.804Z,995.31
2019-03-10T11:56:14.636Z,995.30
2019-03-10T11:57:14.575Z,995.43
2019-03-10T11:58:14.528Z,995.43
2019-03-10T11:59:14.493Z,995.40
2019-03-10T12:00:14.437Z,995.43
2019-03-10T12:01:14.394Z,995.29
2019-03-10T12:02:16.340Z,995.36
2019-03-10T12:03:14.311Z,995.37
2019-03-10T12:04:14.250Z,995.37
2019-03-10T12:05:14.202Z,995.36
2019-03-10T12:06:14.155Z,995.43
2019-03-10T12:07:14.113Z,995.47
2019-03-10T12:08:14.067Z,995.32
2019-03-10T12:09:14.022Z,995.23
2019-03-10T12:10:13.980Z,995.36
2019-03-10T12:11:13.922Z,995.39
2019-03-10T12:12:13.878Z,995.42
2019-03-10T12:13:13.841Z,995.46
2019-03-10T12:14:13.807Z,995.46
2019-03-10T12:15:13.740Z,995.48
2019-03-10T12:16:13.697Z,995.58